createdAt,value
2019-03-19T00:04:04.574Z,3.9
2019-03-19T00:09:27.272Z,3.4
2019-03-19T00:14:49.978Z,4.8
2019-03-19T00:20:12.619Z,5.1
2019-03-19T00:25:35.219Z,4.2
2019-03-19T00:30:58.354Z,4.5
2019-03-19T00:36:20.979Z,5.5
2019-03-19T00:41:45.014Z,4.9
2019-03-19T00:47:07.618Z,4.6
2019-03-19T00:52:30.250Z,5.2
2019-03-19T00:57:52.973Z,4.9
2019-03-19T01:03:15.592Z,5.2
2019-03-19T01:08:39.126Z,4.8
2019-03-19T01:14:01.752Z,4.6
2019-03-19T01:19:24.393Z,4.7
2019-03-19T01:24:47.020Z,4.3
2019-03-19T01:30:09.659Z,4.6
2019-03-19T01:35:32.317Z,3.9
2019-03-19T01:40:54.965Z,4.5
2019-03-19T01:46:17.630Z,5
2019-03-19T01:51:40.257Z,4
2019-03-19T01:57:03.011Z,4.7
2019-03-19T02:02:25.644Z,4.8
2019-03-19T02:07:48.332Z,5.2
2019-03-19T02:13:10.961Z,5.7
2019-03-19T02:18:33.661Z,5.6
2019-03-19T02:23:57.251Z,5
2019-03-19T02:29:20.485Z,5.4
2019-03-19T02:34:43.152Z,6.8
2019-03-19T02:40:05.794Z,6.3
2019-03-19T02:45:28.434Z,7.3
2019-03-19T02:50:51.083Z,5.8
2019-03-19T02:56:13.716Z,6.3
2019-03-19T03:01:36.346Z,6.1
2019-03-19T03:06:59.841Z,6
2019-03-19T03:12:22.474Z,6.6
2019-03-19T03:17:45.135Z,7.3
2019-03-19T03:23:08.723Z,6.9
2019-03-19T03:28:31.352Z,6.6
2019-03-19T03:33:54.052Z,6
2019-03-19T03:39:16.675Z,6.5
2019-03-19T03:44:39.305Z,7.5
2019-03-19T03:50:02.007Z,8.1
2019-03-19T03:55:25.627Z,7.3
2019-03-19T04:00:49.117Z,8.5
2019-03-19T04:06:11.738Z,7.5
2019-03-19T04:11:35.435Z,8.4
2019-03-19T04:16:58.146Z,8.6
2019-03-19T04:22:20.773Z,9.2
2019-03-19T04:27:43.723Z,8.1
2019-03-19T04:33:06.980Z,10.5
2019-03-19T04:38:38.550Z,11.9
2019-03-19T04:44:01.199Z,10.8
2019-03-19T04:49:23.904Z,11.1
2019-03-19T04:54:46.544Z,10.7
2019-03-19T05:00:09.590Z,13.8
2019-03-19T05:05:32.284Z,14.9
2019-03-19T05:10:55.046Z,13.1
2019-03-19T05:16:17.804Z,15.2
2019-03-19T05:21:40.501Z,13.9
2019-03-19T05:27:03.372Z,16.6
2019-03-19T05:32:25.976Z,16.700001
2019-03-19T05:37:48.604Z,12.5
2019-03-19T05:43:11.252Z,13.3
2019-03-19T05:48:33.880Z,14.1
2019-03-19T05:53:56.533Z,18.1
2019-03-19T05:59:19.193Z,15.8
2019-03-19T06:04:41.820Z,23.700001
2019-03-19T06:10:04.482Z,13
2019-03-19T06:15:27.261Z,17
2019-03-19T06:20:49.998Z,16.5
2019-03-19T06:26:12.659Z,30.700001
2019-03-19T06:31:35.388Z,14
2019-03-19T06:36:58.072Z,15.7
2019-03-19T06:42:20.783Z,14.5
2019-03-19T06:47:43.459Z,15.3
2019-03-19T06:53:06.334Z,16.299999
2019-03-19T06:58:29.003Z,16.700001
2019-03-19T07:03:51.654Z,19.299999
2019-03-19T07:09:14.424Z,20.299999
2019-03-19T07:14:37.209Z,23.5
2019-03-19T07:20:00.512Z,18.9
2019-03-19T07:25:23.140Z,18.200001
2019-03-19T07:30:46.609Z,17.700001
2019-03-19T07:36:09.496Z,14.1
2019-03-19T07:41:32.198Z,10.9
2019-03-19T07:46:54.909Z,10.3
2019-03-19T07:52:18.795Z,8.9
2019-03-19T07:57:41.449Z,7.5
2019-03-19T08:03:15.246Z,7.5
2019-03-19T08:08:27.989Z,7
2019-03-19T08:13:51.104Z,5.9
2019-03-19T08:19:13.741Z,5.7
2019-03-19T08:24:36.485Z,6.2
2019-03-19T08:29:59.167Z,5.2
2019-03-19T08:35:21.952Z,6
2019-03-19T08:40:53.584Z,5.3
2019-03-19T08:46:16.205Z,5.3
2019-03-19T08:51:38.814Z,5.1
2019-03-19T08:57:01.459Z,5.1
2019-03-19T09:02:24.139Z,5.5
2019-03-19T09:07:46.739Z,5.2
2019-03-19T09:13:09.481Z,5.2
2019-03-19T09:18:32.083Z,4.6
2019-03-19T09:23:54.788Z,5
2019-03-19T09:29:17.512Z,4.7
2019-03-19T09:34:40.532Z,4.6
2019-03-19T09:40:03.066Z,4.5
2019-03-19T09:45:25.786Z,4.2
2019-03-19T09:50:48.377Z,4.2
2019-03-19T09:56:11.039Z,3.7
2019-03-19T10:01:33.665Z,3.6
2019-03-19T10:07:05.623Z,3.8
2019-03-19T10:12:19.963Z,2.9
2019-03-19T10:17:42.555Z,2.5
2019-03-19T10:23:05.197Z,2.5
2019-03-19T10:28:27.816Z,2.8
2019-03-19T10:33:51.531Z,2.4
2019-03-19T10:39:14.229Z,2.5
2019-03-19T10:44:36.882Z,2.2
2019-03-19T10:50:00.799Z,2.7
2019-03-19T10:55:23.453Z,2.2
2019-03-19T11:00:46.841Z,2.3
2019-03-19T11:06:11.177Z,1.6
2019-03-19T11:11:35.359Z,1.8
2019-03-19T11:16:58.451Z,2
2019-03-19T11:22:21.168Z,1.9
2019-03-19T11:27:43.784Z,2
2019-03-19T11:33:06.587Z,1.7
2019-03-19T11:38:29.258Z,1.9
2019-03-19T11:43:51.916Z,1.7
2019-03-19T11:49:15.611Z,1.7
2019-03-19T11:54:38.450Z,1.9
2019-03-19T12:00:10.640Z,2
2019-03-19T12:05:25.104Z,1.8
2019-03-19T12:10:47.809Z,2.3
2019-03-19T12:16:10.481Z,2.1
2019-03-19T12:21:33.314Z,2
2019-03-19T12:26:56.050Z,2
2019-03-19T12:32:18.787Z,1.8
2019-03-19T12:37:41.711Z,2.1
2019-03-19T12:43:04.706Z,1.9
2019-03-19T12:48:27.642Z,1.9
2019-03-19T12:53:50.718Z,2.2
2019-03-19T12:59:20.017Z,1.9
2019-03-19T13:04:37.380Z,2.1
2019-03-19T13:10:01.011Z,2
2019-03-19T13:15:23.703Z,2
2019-03-19T13:20:46.506Z,2.3
2019-03-19T13:26:09.113Z,1.8
2019-03-19T13:31:31.785Z,1.7
2019-03-19T13:36:53.389Z,1.8
2019-03-19T13:42:16.002Z,1.9
2019-03-19T13:47:38.601Z,1.9
2019-03-19T13:53:02.005Z,2
2019-03-19T13:58:27.069Z,1.6
2019-03-19T14:03:48.259Z,2.1
2019-03-19T14:09:10.867Z,2.4
2019-03-19T14:14:34.217Z,1.9
2019-03-19T14:19:56.882Z,1.8
2019-03-19T14:25:19.508Z,1.7
2019-03-19T14:30:43.390Z,1.8
2019-03-19T14:36:07.035Z,1.9
2019-03-19T14:41:29.661Z,1.5
2019-03-19T14:46:52.308Z,1.9
2019-03-19T14:52:14.983Z,1.9
2019-03-19T14:57:37.635Z,1.9
2019-03-19T15:03:00.254Z,2.1
2019-03-19T15:08:25.297Z,2.3
2019-03-19T15:13:46.586Z,1.7
2019-03-19T15:19:09.217Z,1.6
2019-03-19T15:24:31.867Z,1.9
2019-03-19T15:29:54.477Z,2.2
2019-03-19T15:35:17.163Z,1.9
2019-03-19T15:40:39.774Z,1.8
2019-03-19T15:46:02.484Z,2
2019-03-19T15:51:26.142Z,2
2019-03-19T15:56:48.791Z,2.1
2019-03-19T16:02:12.530Z,2.5
2019-03-19T16:07:35.172Z,2.3
2019-03-19T16:12:57.840Z,2.1
2019-03-19T16:18:20.536Z,2.1
2019-03-19T16:23:43.144Z,2.9
2019-03-19T16:29:05.830Z,2.4
2019-03-19T16:34:28.439Z,2.8
2019-03-19T16:39:51.110Z,2.8
2019-03-19T16:45:13.766Z,2.6
2019-03-19T16:50:36.408Z,2.7
2019-03-19T16:55:59.191Z,2.5
2019-03-19T17:01:21.982Z,2.6
2019-03-19T17:06:44.744Z,2.3
2019-03-19T17:12:07.474Z,2.1
2019-03-19T17:17:30.211Z,3.1
2019-03-19T17:22:53.485Z,2.5
2019-03-19T17:28:22.266Z,2.4
2019-03-19T17:33:39.766Z,2.7
2019-03-19T17:39:02.463Z,2.5
2019-03-19T17:44:25.205Z,2.7
2019-03-19T17:49:47.920Z,2.9
2019-03-19T17:55:10.638Z,3.3
2019-03-19T18:00:33.383Z,2.9
2019-03-19T18:05:56.017Z,3.4
2019-03-19T18:11:18.667Z,3.2
2019-03-19T18:16:41.337Z,3.2
2019-03-19T18:22:04.108Z,6.6
2019-03-19T18:27:26.633Z,6.4
2019-03-19T18:32:49.366Z,7
2019-03-19T18:38:12.074Z,4.7
2019-03-19T18:43:34.771Z,6.2
2019-03-19T18:48:57.449Z,3.2
2019-03-19T18:54:20.054Z,5
2019-03-19T18:59:43.471Z,5.3
2019-03-19T19:05:06.079Z,4.8
2019-03-19T19:10:28.901Z,4.7
2019-03-19T19:15:51.523Z,4.6
2019-03-19T19:21:14.724Z,5.3
2019-03-19T19:26:37.354Z,5.3
2019-03-19T19:32:00.844Z,5.2
2019-03-19T19:37:23.804Z,5.9
2019-03-19T19:42:46.429Z,5.7
2019-03-19T19:48:10.114Z,6
2019-03-19T19:53:32.755Z,6.2
2019-03-19T19:58:55.455Z,6.4
2019-03-19T20:04:18.993Z,7.8
2019-03-19T20:09:41.591Z,9.2
2019-03-19T20:15:04.225Z,7.5
2019-03-19T20:20:26.895Z,7
2019-03-19T20:25:49.497Z,5.9
2019-03-19T20:31:12.236Z,5.4
2019-03-19T20:36:34.879Z,6.3
2019-03-19T20:41:59.828Z,5.2
2019-03-19T20:47:21.570Z,4.9
2019-03-19T20:52:44.567Z,5
2019-03-19T20:58:07.210Z,5.5
2019-03-19T21:03:35.697Z,5.9
2019-03-19T21:08:53.648Z,5.3
2019-03-19T21:14:17.506Z,5.1
2019-03-19T21:19:40.820Z,5
2019-03-19T21:25:04.278Z,5
2019-03-19T21:30:27.051Z,6.1
2019-03-19T21:35:49.714Z,5.9
2019-03-19T21:41:12.378Z,6.3
2019-03-19T21:46:35.048Z,6.6
2019-03-19T21:51:57.722Z,7.1
2019-03-19T21:57:21.335Z,6.4
2019-03-19T22:02:44.011Z,7.4
2019-03-19T22:08:07.730Z,6.8
2019-03-19T22:13:30.419Z,7.5
2019-03-19T22:18:53.204Z,12.4
2019-03-19T22:24:15.859Z,8.4
2019-03-19T22:29:38.553Z,8.2
2019-03-19T22:35:02.090Z,7
2019-03-19T22:40:24.839Z,8.5
2019-03-19T22:45:48.214Z,8.2
2019-03-19T22:51:10.959Z,9.4
2019-03-19T22:56:33.683Z,8.4
2019-03-19T23:01:56.829Z,9.2
2019-03-19T23:07:19.528Z,9.1
2019-03-19T23:12:42.213Z,8.8
2019-03-19T23:18:04.869Z,9
2019-03-19T23:23:27.595Z,9.5
2019-03-19T23:28:50.957Z,9.2
2019-03-19T23:34:13.623Z,11.4
2019-03-19T23:39:36.333Z,9.1
2019-03-19T23:45:00.063Z,9.2
2019-03-19T23:50:23.402Z,9.4
2019-03-19T23:55:46.064Z,9
